sensor_id;sensor_type;location;lat;lon;timestamp;pressure;altitude;pressure_sealevel;temperature;humidity
75681;BME280;64294;49.176;16.626;2023-04-15T00:01:57;97980.78;;;3.86;100.00
75681;BME280;64294;49.176;16.626;2023-04-15T00:04:24;97976.81;;;3.81;100.00
75681;BME280;64294;49.176;16.626;2023-04-15T00:06:53;97984.63;;;3.83;100.00
75681;BME280;64294;49.176;16.626;2023-04-15T00:09:19;97996.50;;;3.83;100.00
75681;BME280;64294;49.176;16.626;2023-04-15T00:11:45;98001.28;;;3.83;100.00
75681;BME280;64294;49.176;16.626;2023-04-15T00:14:12;98003.09;;;3.80;100.00
75681;BME280;64294;49.176;16.626;2023-04-15T00:16:37;97991.00;;;3.78;100.00
75681;BME280;64294;49.176;16.626;2023-04-15T00:19:03;97989.53;;;3.71;100.00
75681;BME280;64294;49.176;16.626;2023-04-15T00:21:29;97990.81;;;3.70;100.00
75681;BME280;64294;49.176;16.626;2023-04-15T00:23:54;97993.38;;;3.68;100.00
75681;BME280;64294;49.176;16.626;2023-04-15T00:26:20;97999.16;;;3.70;100.00
75681;BME280;64294;49.176;16.626;2023-04-15T00:28:46;97989.31;;;3.69;100.00
75681;BME280;64294;49.176;16.626;2023-04-15T00:31:12;97988.13;;;3.64;100.00
75681;BME280;64294;49.176;16.626;2023-04-15T00:33:37;97979.03;;;3.64;100.00
75681;BME280;64294;49.176;16.626;2023-04-15T00:36:03;97979.97;;;3.72;100.00
75681;BME280;64294;49.176;16.626;2023-04-15T00:38:29;97974.16;;;3.70;100.00
75681;BME280;64294;49.176;16.626;2023-04-15T00:40:54;97988.88;;;3.65;100.00
75681;BME280;64294;49.176;16.626;2023-04-15T00:43:20;97975.44;;;3.69;100.00
75681;BME280;64294;49.176;16.626;2023-04-15T00:45:46;97993.84;;;3.72;100.00
75681;BME280;64294;49.176;16.626;2023-04-15T00:48:11;97988.78;;;3.71;100.00
75681;BME280;64294;49.176;16.626;2023-04-15T00:50:37;97980.72;;;3.73;100.00
75681;BME280;64294;49.176;16.626;2023-04-15T00:53:02;97977.53;;;3.63;100.00
75681;BME280;64294;49.176;16.626;2023-04-15T00:55:28;97992.91;;;3.64;100.00
75681;BME280;64294;49.176;16.626;2023-04-15T00:57:53;97982.25;;;3.68;100.00
75681;BME280;64294;49.176;16.626;2023-04-15T01:00:19;97983.50;;;3.73;100.00
75681;BME280;64294;49.176;16.626;2023-04-15T01:02:45;97984.75;;;3.72;100.00
75681;BME280;64294;49.176;16.626;2023-04-15T01:05:10;97991.56;;;3.71;100.00
75681;BME280;64294;49.176;16.626;2023-04-15T01:07:36;97986.00;;;3.71;100.00
75681;BME280;64294;49.176;16.626;2023-04-15T01:10:04;97998.69;;;3.66;100.00
75681;BME280;64294;49.176;16.626;2023-04-15T01:12:31;97992.09;;;3.69;100.00
75681;BME280;64294;49.176;16.626;2023-04-15T01:14:58;97987.19;;;3.81;100.00
75681;BME280;64294;49.176;16.626;2023-04-15T01:17:24;97997.09;;;3.76;100.00
75681;BME280;64294;49.176;16.626;2023-04-15T01:19:50;97993.25;;;3.79;100.00
75681;BME280;64294;49.176;16.626;2023-04-15T01:22:16;97990.19;;;3.83;100.00
75681;BME280;64294;49.176;16.626;2023-04-15T01:24:50;97986.94;;;3.79;100.00
75681;BME280;64294;49.176;16.626;2023-04-15T01:27:20;97988.69;;;3.82;100.00
75681;BME280;64294;49.176;16.626;2023-04-15T01:29:45;97991.69;;;3.84;100.00
75681;BME280;64294;49.176;16.626;2023-04-15T01:32:11;97993.47;;;3.81;100.00
75681;BME280;64294;49.176;16.626;2023-04-15T01:34:37;97993.63;;;3.89;100.00
75681;BME280;64294;49.176;16.626;2023-04-15T01:37:02;97998.22;;;3.86;100.00
75681;BME280;64294;49.176;16.626;2023-04-15T01:39:27;98000.25;;;3.86;100.00
75681;BME280;64294;49.176;16.626;2023-04-15T01:41:53;98000.66;;;3.95;100.00
75681;BME280;64294;49.176;16.626;2023-04-15T01:44:18;97998.00;;;3.84;100.00
75681;BME280;64294;49.176;16.626;2023-04-15T01:46:44;98011.75;;;3.95;100.00
75681;BME280;64294;49.176;16.626;2023-04-15T01:49:09;98016.03;;;3.97;100.00
75681;BME280;64294;49.176;16.626;2023-04-15T01:51:34;98003.72;;;3.92;100.00
75681;BME280;64294;49.176;16.626;2023-04-15T01:54:00;98002.97;;;3.91;100.00
75681;BME280;64294;49.176;16.626;2023-04-15T01:56:26;97997.34;;;3.97;100.00
75681;BME280;64294;49.176;16.626;2023-04-15T01:58:51;98006.44;;;3.98;100.00
75681;BME280;64294;49.176;16.626;2023-04-15T02:01:17;98009.13;;;4.03;100.00
75681;BME280;64294;49.176;16.626;2023-04-15T02:03:44;98004.63;;;4.00;100.00
75681;BME280;64294;49.176;16.626;2023-04-15T02:06:09;98014.47;;;4.01;100.00
75681;BME280;64294;49.176;16.626;2023-04-15T02:08:35;98002.38;;;3.99;100.00
75681;BME280;64294;49.176;16.626;2023-04-15T02:11:00;98005.81;;;4.05;100.00
75681;BME280;64294;49.176;16.626;2023-04-15T02:13:26;98008.38;;;4.03;100.00
75681;BME280;64294;49.176;16.626;2023-04-15T02:15:51;98019.94;;;4.07;100.00
75681;BME280;64294;49.176;16.626;2023-04-15T02:18:17;98022.28;;;4.03;100.00
75681;BME280;64294;49.176;16.626;2023-04-15T02:20:42;98017.16;;;4.07;100.00
75681;BME280;64294;49.176;16.626;2023-04-15T02:23:08;98024.94;;;4.14;100.00
75681;BME280;64294;49.176;16.626;2023-04-15T02:25:33;98011.69;;;4.01;100.00
75681;BME280;64294;49.176;16.626;2023-04-15T02:27:59;98009.88;;;4.04;100.00
75681;BME280;64294;49.176;16.626;2023-04-15T02:30:24;98008.91;;;4.01;100.00
75681;BME280;64294;49.176;16.626;2023-04-15T02:32:50;98011.59;;;4.07;100.00
75681;BME280;64294;49.176;16.626;2023-04-15T02:35:15;98015.44;;;4.04;100.00
75681;BME280;64294;49.176;16.626;2023-04-15T02:37:44;98012.44;;;4.02;100.00
75681;BME280;64294;49.176;16.626;2023-04-15T02:40:10;98008.84;;;4.07;100.00
75681;BME280;64294;49.176;16.626;2023-04-15T02:42:40;98016.66;;;4.08;100.00
75681;BME280;64294;49.176;16.626;2023-04-15T02:45:06;98014.69;;;4.03;100.00
75681;BME280;64294;49.176;16.626;2023-04-15T02:47:33;98018.53;;;4.00;100.00
75681;BME280;64294;49.176;16.626;2023-04-15T02:49:58;98016.72;;;4.03;100.00
75681;BME280;64294;49.176;16.626;2023-04-15T02:52:26;98026.78;;;4.06;100.00
75681;BME280;64294;49.176;16.626;2023-04-15T02:54:51;98026.34;;;4.02;100.00
75681;BME280;64294;49.176;16.626;2023-04-15T02:57:21;98028.28;;;4.07;100.00
75681;BME280;64294;49.176;16.626;2023-04-15T02:59:47;98029.28;;;4.09;100.00
75681;BME280;64294;49.176;16.626;2023-04-15T03:02:12;98025.28;;;4.05;100.00
75681;BME280;64294;49.176;16.626;2023-04-15T03:04:37;98028.03;;;4.10;100.00
75681;BME280;64294;49.176;16.626;2023-04-15T03:07:03;98031.69;;;4.18;100.00
75681;BME280;64294;49.176;16.626;2023-04-15T03:09:29;98027.50;;;4.12;100.00
75681;BME280;64294;49.176;16.626;2023-04-15T03:11:55;98029.59;;;4.24;100.00
75681;BME280;64294;49.176;16.626;2023-04-15T03:14:21;98033.94;;;4.20;100.00
75681;BME280;64294;49.176;16.626;2023-04-15T03:16:46;98035.75;;;4.17;100.00
75681;BME280;64294;49.176;16.626;2023-04-15T03:19:12;98032.66;;;4.21;100.00
75681;BME280;64294;49.176;16.626;2023-04-15T03:21:37;98029.00;;;4.13;100.00
75681;BME280;64294;49.176;16.626;2023-04-15T03:24:03;98029.44;;;4.17;100.00
75681;BME280;64294;49.176;16.626;2023-04-15T03:26:29;98021.31;;;4.19;100.00
75681;BME280;64294;49.176;16.626;2023-04-15T03:28:56;98024.03;;;4.24;100.00
75681;BME280;64294;49.176;16.626;2023-04-15T03:31:22;98031.47;;;4.16;100.00
75681;BME280;64294;49.176;16.626;2023-04-15T03:33:48;98037.25;;;4.18;100.00
75681;BME280;64294;49.176;16.626;2023-04-15T03:36:13;98038.63;;;4.12;100.00
75681;BME280;64294;49.176;16.626;2023-04-15T03:38:39;98049.22;;;4.13;100.00
75681;BME280;64294;49.176;16.626;2023-04-15T03:41:04;98037.41;;;4.26;100.00
75681;BME280;64294;49.176;16.626;2023-04-15T03:43:30;98045.38;;;4.16;100.00
75681;BME280;64294;49.176;16.626;2023-04-15T03:45:55;98050.63;;;4.20;100.00
75681;BME280;64294;49.176;16.626;2023-04-15T03:48:21;98048.16;;;4.16;100.00
75681;BME280;64294;49.176;16.626;2023-04-15T03:50:46;98046.88;;;4.17;100.00
75681;BME280;64294;49.176;16.626;2023-04-15T03:53:12;98047.50;;;4.29;100.00
75681;BME280;64294;49.176;16.626;2023-04-15T03:55:37;98057.13;;;4.28;100.00
75681;BME280;64294;49.176;16.626;2023-04-15T03:58:03;98058.97;;;4.20;100.00
75681;BME280;64294;49.176;16.626;2023-04-15T04:00:28;98059.66;;;4.26;100.00
75681;BME280;64294;49.176;16.626;2023-04-15T04:02:54;98056.41;;;4.22;100.00
75681;BME280;64294;49.176;16.626;2023-04-15T04:05:20;98062.38;;;4.32;100.00
75681;BME280;64294;49.176;16.626;2023-04-15T04:07:45;98055.38;;;4.25;100.00
75681;BME280;64294;49.176;16.626;2023-04-15T04:10:11;98059.13;;;4.28;100.00
75681;BME280;64294;49.176;16.626;2023-04-15T04:12:36;98058.63;;;4.29;100.00
75681;BME280;64294;49.176;16.626;2023-04-15T04:15:02;98055.00;;;4.34;100.00
75681;BME280;64294;49.176;16.626;2023-04-15T04:17:28;98061.91;;;4.28;100.00
75681;BME280;64294;49.176;16.626;2023-04-15T04:19:53;98066.72;;;4.27;100.00
75681;BME280;64294;49.176;16.626;2023-04-15T04:22:22;98063.34;;;4.34;100.00
75681;BME280;64294;49.176;16.626;2023-04-15T04:24:48;98058.78;;;4.37;100.00
75681;BME280;64294;49.176;16.626;2023-04-15T04:27:14;98069.00;;;4.47;100.00
75681;BME280;64294;49.176;16.626;2023-04-15T04:29:39;98069.91;;;4.37;100.00
75681;BME280;64294;49.176;16.626;2023-04-15T04:32:05;98071.69;;;4.34;100.00
75681;BME280;64294;49.176;16.626;2023-04-15T04:34:30;98069.59;;;4.40;100.00
75681;BME280;64294;49.176;16.626;2023-04-15T04:36:56;98076.44;;;4.39;100.00
75681;BME280;64294;49.176;16.626;2023-04-15T04:39:22;98069.50;;;4.46;100.00
75681;BME280;64294;49.176;16.626;2023-04-15T04:41:47;98071.09;;;4.41;100.00
75681;BME280;64294;49.176;16.626;2023-04-15T04:44:13;98068.75;;;4.45;100.00
75681;BME280;64294;49.176;16.626;2023-04-15T04:46:38;98076.22;;;4.37;100.00
75681;BME280;64294;49.176;16.626;2023-04-15T04:49:04;98068.72;;;4.51;100.00
75681;BME280;64294;49.176;16.626;2023-04-15T04:51:30;98072.28;;;4.46;100.00
75681;BME280;64294;49.176;16.626;2023-04-15T04:53:56;98071.09;;;4.41;100.00
75681;BME280;64294;49.176;16.626;2023-04-15T04:56:22;98070.03;;;4.44;100.00
75681;BME280;64294;49.176;16.626;2023-04-15T04:58:47;98073.97;;;4.54;100.00
75681;BME280;64294;49.176;16.626;2023-04-15T05:01:12;98065.00;;;4.62;100.00
75681;BME280;64294;49.176;16.626;2023-04-15T05:03:38;98074.72;;;4.55;100.00
75681;BME280;64294;49.176;16.626;2023-04-15T05:06:03;98067.44;;;4.52;100.00
75681;BME280;64294;49.176;16.626;2023-04-15T05:08:31;98073.34;;;4.62;100.00
75681;BME280;64294;49.176;16.626;2023-04-15T05:10:57;98073.22;;;4.73;100.00
75681;BME280;64294;49.176;16.626;2023-04-15T05:13:22;98068.69;;;4.70;100.00
75681;BME280;64294;49.176;16.626;2023-04-15T05:15:48;98081.16;;;4.63;100.00
75681;BME280;64294;49.176;16.626;2023-04-15T05:18:13;98076.00;;;4.73;100.00
75681;BME280;64294;49.176;16.626;2023-04-15T05:20:38;98075.78;;;4.71;100.00
75681;BME280;64294;49.176;16.626;2023-04-15T05:23:04;98078.84;;;4.67;100.00
75681;BME280;64294;49.176;16.626;2023-04-15T05:25:30;98084.56;;;4.75;100.00
75681;BME280;64294;49.176;16.626;2023-04-15T05:27:55;98092.91;;;4.75;100.00
75681;BME280;64294;49.176;16.626;2023-04-15T05:30:21;98086.72;;;4.82;100.00
75681;BME280;64294;49.176;16.626;2023-04-15T05:32:46;98090.97;;;4.89;100.00
75681;BME280;64294;49.176;16.626;2023-04-15T05:35:12;98084.19;;;4.84;100.00
75681;BME280;64294;49.176;16.626;2023-04-15T05:37:37;98085.44;;;4.83;100.00
75681;BME280;64294;49.176;16.626;2023-04-15T05:40:03;98084.19;;;4.84;100.00
75681;BME280;64294;49.176;16.626;2023-04-15T05:42:28;98085.97;;;4.81;100.00
75681;BME280;64294;49.176;16.626;2023-04-15T05:44:54;98088.53;;;4.79;100.00
75681;BME280;64294;49.176;16.626;2023-04-15T05:47:20;98086.72;;;4.82;100.00
75681;BME280;64294;49.176;16.626;2023-04-15T05:49:45;98096.13;;;4.79;100.00
75681;BME280;64294;49.176;16.626;2023-04-15T05:52:11;98094.41;;;4.76;100.00
75681;BME280;64294;49.176;16.626;2023-04-15T05:54:36;98086.72;;;4.82;100.00
75681;BME280;64294;49.176;16.626;2023-04-15T05:57:02;98089.38;;;4.93;100.00
75681;BME280;64294;49.176;16.626;2023-04-15T05:59:28;98098.91;;;4.98;100.00
75681;BME280;64294;49.176;16.626;2023-04-15T06:01:53;98102.00;;;4.94;100.00
75681;BME280;64294;49.176;16.626;2023-04-15T06:04:19;98092.75;;;5.05;100.00
75681;BME280;64294;49.176;16.626;2023-04-15T06:06:44;98105.06;;;5.09;100.00
75681;BME280;64294;49.176;16.626;2023-04-15T06:09:10;98101.53;;;5.09;100.00
75681;BME280;64294;49.176;16.626;2023-04-15T06:11:35;98112.44;;;5.26;100.00
75681;BME280;64294;49.176;16.626;2023-04-15T06:14:01;98105.56;;;5.27;100.00
75681;BME280;64294;49.176;16.626;2023-04-15T06:16:26;98106.16;;;5.20;100.00
75681;BME280;64294;49.176;16.626;2023-04-15T06:18:52;98103.56;;;5.08;100.00
75681;BME280;64294;49.176;16.626;2023-04-15T06:21:18;98114.31;;;5.17;100.00
75681;BME280;64294;49.176;16.626;2023-04-15T06:23:43;98115.00;;;5.37;100.00
75681;BME280;64294;49.176;16.626;2023-04-15T06:26:09;98111.19;;;5.40;100.00
75681;BME280;64294;49.176;16.626;2023-04-15T06:28:34;98116.72;;;5.59;100.00
75681;BME280;64294;49.176;16.626;2023-04-15T06:31:00;98117.41;;;5.46;100.00
75681;BME280;64294;49.176;16.626;2023-04-15T06:33:26;98129.03;;;5.63;100.00
75681;BME280;64294;49.176;16.626;2023-04-15T06:35:51;98124.88;;;5.70;100.00
75681;BME280;64294;49.176;16.626;2023-04-15T06:38:17;98130.94;;;5.55;100.00
75681;BME280;64294;49.176;16.626;2023-04-15T06:40:42;98123.25;;;5.74;100.00
75681;BME280;64294;49.176;16.626;2023-04-15T06:43:08;98125.72;;;5.65;100.00
75681;BME280;64294;49.176;16.626;2023-04-15T06:45:34;98120.25;;;5.72;100.00
75681;BME280;64294;49.176;16.626;2023-04-15T06:47:59;98134.13;;;5.78;100.00
75681;BME280;64294;49.176;16.626;2023-04-15T06:50:25;98132.09;;;5.92;100.00
75681;BME280;64294;49.176;16.626;2023-04-15T06:52:53;98133.47;;;5.85;100.00
75681;BME280;64294;49.176;16.626;2023-04-15T06:55:18;98138.72;;;5.89;100.00
75681;BME280;64294;49.176;16.626;2023-04-15T06:57:44;98139.16;;;5.80;100.00
75681;BME280;64294;49.176;16.626;2023-04-15T07:00:10;98136.66;;;5.76;100.00
75681;BME280;64294;49.176;16.626;2023-04-15T07:02:36;98135.50;;;5.85;100.00
75681;BME280;64294;49.176;16.626;2023-04-15T07:05:01;98136.84;;;5.97;100.00
75681;BME280;64294;49.176;16.626;2023-04-15T07:07:27;98138.34;;;6.11;100.00
75681;BME280;64294;49.176;16.626;2023-04-15T07:09:55;98131.06;;;6.21;100.00
75681;BME280;64294;49.176;16.626;2023-04-15T07:12:21;98134.28;;;5.99;100.00
75681;BME280;64294;49.176;16.626;2023-04-15T07:14:46;98140.09;;;6.14;100.00
75681;BME280;64294;49.176;16.626;2023-04-15T07:17:12;98142.66;;;6.25;100.00
75681;BME280;64294;49.176;16.626;2023-04-15T07:19:37;98146.75;;;6.24;100.00
75681;BME280;64294;49.176;16.626;2023-04-15T07:22:02;98146.75;;;6.24;100.00
75681;BME280;64294;49.176;16.626;2023-04-15T07:24:28;98141.81;;;6.17;100.00
75681;BME280;64294;49.176;16.626;2023-04-15T07:26:53;98144.06;;;6.19;100.00
75681;BME280;64294;49.176;16.626;2023-04-15T07:29:21;98152.50;;;6.13;100.00
75681;BME280;64294;49.176;16.626;2023-04-15T07:31:47;98145.66;;;6.14;100.00
75681;BME280;64294;49.176;16.626;2023-04-15T07:34:12;98145.78;;;6.22;100.00
75681;BME280;64294;49.176;16.626;2023-04-15T07:36:37;98148.88;;;6.18;100.00
75681;BME280;64294;49.176;16.626;2023-04-15T07:39:03;98150.78;;;6.10;100.00
75681;BME280;64294;49.176;16.626;2023-04-15T07:41:29;98158.94;;;6.08;100.00
75681;BME280;64294;49.176;16.626;2023-04-15T07:43:55;98168.41;;;6.18;100.00
75681;BME280;64294;49.176;16.626;2023-04-15T07:46:20;98169.03;;;6.11;100.00
75681;BME280;64294;49.176;16.626;2023-04-15T07:48:48;98159.84;;;6.16;100.00
75681;BME280;64294;49.176;16.626;2023-04-15T07:51:13;98164.34;;;6.32;100.00
75681;BME280;64294;49.176;16.626;2023-04-15T07:53:38;98168.41;;;6.31;100.00
75681;BME280;64294;49.176;16.626;2023-04-15T07:56:04;98176.38;;;6.41;100.00
75681;BME280;64294;49.176;16.626;2023-04-15T07:58:30;98168.66;;;6.33;100.00
75681;BME280;64294;49.176;16.626;2023-04-15T08:00:55;98172.50;;;6.44;100.00
75681;BME280;64294;49.176;16.626;2023-04-15T08:03:21;98186.44;;;6.30;100.00
75681;BME280;64294;49.176;16.626;2023-04-15T08:05:47;98182.28;;;6.37;100.00
75681;BME280;64294;49.176;16.626;2023-04-15T08:08:13;98179.78;;;6.20;100.00
75681;BME280;64294;49.176;16.626;2023-04-15T08:10:38;98194.59;;;6.15;100.00
75681;BME280;64294;49.176;16.626;2023-04-15T08:13:04;98187.28;;;6.12;100.00
75681;BME280;64294;49.176;16.626;2023-04-15T08:15:30;98190.63;;;6.24;100.00
75681;BME280;64294;49.176;16.626;2023-04-15T08:17:57;98189.00;;;6.28;100.00
75681;BME280;64294;49.176;16.626;2023-04-15T08:20:24;98189.88;;;6.36;100.00
75681;BME280;64294;49.176;16.626;2023-04-15T08:22:50;98200.16;;;6.28;100.00
75681;BME280;64294;49.176;16.626;2023-04-15T08:25:16;98204.78;;;6.26;100.00
75681;BME280;64294;49.176;16.626;2023-04-15T08:27:42;98210.88;;;6.11;100.00
75681;BME280;64294;49.176;16.626;2023-04-15T08:30:08;98201.91;;;6.18;100.00
75681;BME280;64294;49.176;16.626;2023-04-15T08:32:34;98209.19;;;6.21;100.00
75681;BME280;64294;49.176;16.626;2023-04-15T08:34:59;98207.25;;;6.29;100.00
75681;BME280;64294;49.176;16.626;2023-04-15T08:37:25;98200.38;;;6.30;100.00
75681;BME280;64294;49.176;16.626;2023-04-15T08:39:51;98205.75;;;6.28;100.00
75681;BME280;64294;49.176;16.626;2023-04-15T08:42:18;98195.16;;;6.40;100.00
75681;BME280;64294;49.176;16.626;2023-04-15T08:44:46;98204.81;;;6.52;100.00
75681;BME280;64294;49.176;16.626;2023-04-15T08:47:13;98204.38;;;6.48;100.00
75681;BME280;64294;49.176;16.626;2023-04-15T08:49:39;98206.53;;;6.55;100.00
75681;BME280;64294;49.176;16.626;2023-04-15T08:52:07;98201.78;;;6.50;100.00
75681;BME280;64294;49.176;16.626;2023-04-15T08:54:34;98205.78;;;6.55;100.00
75681;BME280;64294;49.176;16.626;2023-04-15T08:57:00;98209.22;;;6.74;100.00
75681;BME280;64294;49.176;16.626;2023-04-15T08:59:30;98214.88;;;6.82;100.00
75681;BME280;64294;49.176;16.626;2023-04-15T09:01:56;98215.00;;;6.89;100.00
75681;BME280;64294;49.176;16.626;2023-04-15T09:04:22;98218.22;;;6.80;100.00
75681;BME280;64294;49.176;16.626;2023-04-15T09:06:48;98228.84;;;6.95;100.00
75681;BME280;64294;49.176;16.626;2023-04-15T09:09:13;98218.75;;;6.79;100.00
75681;BME280;64294;49.176;16.626;2023-04-15T09:11:39;98222.31;;;6.92;100.00
75681;BME280;64294;49.176;16.626;2023-04-15T09:14:04;98232.81;;;6.99;100.00
75681;BME280;64294;49.176;16.626;2023-04-15T09:16:30;98247.72;;;7.15;98.55
75681;BME280;64294;49.176;16.626;2023-04-15T09:18:56;98232.38;;;7.43;98.13
75681;BME280;64294;49.176;16.626;2023-04-15T09:21:22;98235.69;;;7.54;98.08
75681;BME280;64294;49.176;16.626;2023-04-15T09:24:00;98233.56;;;8.02;97.44
75681;BME280;64294;49.176;16.626;2023-04-15T09:26:34;98248.97;;;7.96;95.30
75681;BME280;64294;49.176;16.626;2023-04-15T09:29:17;98238.81;;;7.85;93.63
75681;BME280;64294;49.176;16.626;2023-04-15T09:31:43;98244.34;;;8.19;92.48
75681;BME280;64294;49.176;16.626;2023-04-15T09:34:08;98245.19;;;8.84;91.55
75681;BME280;64294;49.176;16.626;2023-04-15T09:39:11;98247.00;;;8.25;93.28
75681;BME280;64294;49.176;16.626;2023-04-15T09:41:39;98245.75;;;8.12;93.90
75681;BME280;64294;49.176;16.626;2023-04-15T09:44:05;98244.53;;;8.21;93.88
75681;BME280;64294;49.176;16.626;2023-04-15T09:46:42;98253.19;;;8.31;94.21
75681;BME280;64294;49.176;16.626;2023-04-15T09:49:10;98248.09;;;8.42;93.90
75681;BME280;64294;49.176;16.626;2023-04-15T09:51:36;98248.91;;;8.79;96.22
75681;BME280;64294;49.176;16.626;2023-04-15T09:54:02;98267.06;;;8.57;93.72
75681;BME280;64294;49.176;16.626;2023-04-15T09:56:34;98269.84;;;8.86;93.05
75681;BME280;64294;49.176;16.626;2023-04-15T09:59:09;98257.56;;;8.60;92.19
75681;BME280;64294;49.176;16.626;2023-04-15T10:01:35;98270.66;;;8.65;89.60
75681;BME280;64294;49.176;16.626;2023-04-15T10:04:03;98262.22;;;9.22;88.94
75681;BME280;64294;49.176;16.626;2023-04-15T10:06:29;98265.38;;;8.83;90.21
75681;BME280;64294;49.176;16.626;2023-04-15T10:08:56;98253.53;;;8.48;93.48
75681;BME280;64294;49.176;16.626;2023-04-15T10:11:23;98266.19;;;8.20;94.41
75681;BME280;64294;49.176;16.626;2023-04-15T10:13:50;98269.88;;;8.36;96.30
75681;BME280;64294;49.176;16.626;2023-04-15T10:16:18;98263.31;;;8.13;95.09
75681;BME280;64294;49.176;16.626;2023-04-15T10:18:46;98280.28;;;7.94;97.42
75681;BME280;64294;49.176;16.626;2023-04-15T10:21:13;98271.69;;;7.92;100.00
75681;BME280;64294;49.176;16.626;2023-04-15T10:23:44;98267.19;;;7.89;100.00
75681;BME280;64294;49.176;16.626;2023-04-15T10:26:09;98277.25;;;8.47;100.00
75681;BME280;64294;49.176;16.626;2023-04-15T10:28:37;98275.47;;;8.57;100.00
75681;BME280;64294;49.176;16.626;2023-04-15T10:31:03;98286.53;;;8.63;96.60
75681;BME280;64294;49.176;16.626;2023-04-15T10:33:30;98274.56;;;8.62;97.88
75681;BME280;64294;49.176;16.626;2023-04-15T10:35:56;98280.47;;;9.52;91.00
75681;BME280;64294;49.176;16.626;2023-04-15T10:38:36;98277.78;;;9.97;92.69
75681;BME280;64294;49.176;16.626;2023-04-15T10:43:54;98274.91;;;9.23;95.41
75681;BME280;64294;49.176;16.626;2023-04-15T10:46:36;98283.72;;;9.71;92.35
75681;BME280;64294;49.176;16.626;2023-04-15T10:49:14;98282.16;;;9.55;92.88
75681;BME280;64294;49.176;16.626;2023-04-15T10:51:42;98280.06;;;10.07;92.21
75681;BME280;64294;49.176;16.626;2023-04-15T10:54:13;98279.72;;;10.79;88.58
75681;BME280;64294;49.176;16.626;2023-04-15T10:56:43;98277.84;;;10.58;88.29
75681;BME280;64294;49.176;16.626;2023-04-15T10:59:09;98289.66;;;10.57;85.36
75681;BME280;64294;49.176;16.626;2023-04-15T11:01:55;98287.06;;;11.37;80.41
75681;BME280;64294;49.176;16.626;2023-04-15T11:04:50;98277.25;;;13.45;70.56
75681;BME280;64294;49.176;16.626;2023-04-15T11:07:36;98279.38;;;12.85;73.51
75681;BME280;64294;49.176;16.626;2023-04-15T11:10:03;98270.75;;;12.83;72.44
75681;BME280;64294;49.176;16.626;2023-04-15T11:12:59;98272.56;;;11.96;74.49
75681;BME280;64294;49.176;16.626;2023-04-15T11:18:21;98288.56;;;12.68;71.50
75681;BME280;64294;49.176;16.626;2023-04-15T11:20:50;98275.50;;;13.50;65.91
75681;BME280;64294;49.176;16.626;2023-04-15T11:23:17;98272.59;;;11.89;72.59
75681;BME280;64294;49.176;16.626;2023-04-15T11:25:43;98289.19;;;11.14;73.49
75681;BME280;64294;49.176;16.626;2023-04-15T11:28:10;98287.06;;;12.67;70.83
75681;BME280;64294;49.176;16.626;2023-04-15T11:30:36;98281.53;;;12.94;69.54
75681;BME280;64294;49.176;16.626;2023-04-15T11:33:04;98280.78;;;12.02;70.44
75681;BME280;64294;49.176;16.626;2023-04-15T11:35:31;98286.44;;;10.76;74.53
75681;BME280;64294;49.176;16.626;2023-04-15T11:37:57;98293.38;;;10.59;76.19
75681;BME280;64294;49.176;16.626;2023-04-15T11:40:26;98287.09;;;11.30;73.40
75681;BME280;64294;49.176;16.626;2023-04-15T11:45:29;98286.81;;;11.50;73.03
75681;BME280;64294;49.176;16.626;2023-04-15T11:48:04;98293.19;;;11.59;73.95
75681;BME280;64294;49.176;16.626;2023-04-15T11:50:30;98290.63;;;13.27;68.14
75681;BME280;64294;49.176;16.626;2023-04-15T11:53:01;98301.28;;;13.12;63.91
75681;BME280;64294;49.176;16.626;2023-04-15T11:55:27;98303.22;;;11.29;70.57
75681;BME280;64294;49.176;16.626;2023-04-15T11:58:22;98295.09;;;10.63;75.05
75681;BME280;64294;49.176;16.626;2023-04-15T12:00:53;98304.06;;;10.84;74.33
75681;BME280;64294;49.176;16.626;2023-04-15T12:03:39;98300.84;;;10.19;76.80
75681;BME280;64294;49.176;16.626;2023-04-15T12:13:53;98290.56;;;10.90;75.26
75681;BME280;64294;49.176;16.626;2023-04-15T12:16:20;98299.94;;;12.53;70.81
75681;BME280;64294;49.176;16.626;2023-04-15T12:18:50;98300.47;;;12.59;66.91
75681;BME280;64294;49.176;16.626;2023-04-15T12:21:18;98293.91;;;12.99;65.18
75681;BME280;64294;49.176;16.626;2023-04-15T12:23:52;98302.59;;;12.51;65.17
75681;BME280;64294;49.176;16.626;2023-04-15T12:26:28;98300.91;;;12.23;66.89
75681;BME280;64294;49.176;16.626;2023-04-15T12:29:01;98301.50;;;11.34;69.85
75681;BME280;64294;49.176;16.626;2023-04-15T12:31:27;98305.38;;;10.52;73.21
75681;BME280;64294;49.176;16.626;2023-04-15T12:33:56;98300.63;;;10.01;79.83
75681;BME280;64294;49.176;16.626;2023-04-15T12:36:22;98311.41;;;9.82;83.22
75681;BME280;64294;49.176;16.626;2023-04-15T12:38:48;98320.78;;;9.05;84.60
75681;BME280;64294;49.176;16.626;2023-04-15T12:41:14;98316.19;;;8.87;88.90
75681;BME280;64294;49.176;16.626;2023-04-15T12:43:40;98325.16;;;8.85;89.00
75681;BME280;64294;49.176;16.626;2023-04-15T12:46:08;98327.91;;;8.77;92.37
75681;BME280;64294;49.176;16.626;2023-04-15T12:48:34;98340.16;;;8.46;95.14
75681;BME280;64294;49.176;16.626;2023-04-15T12:51:00;98342.16;;;8.25;95.55
75681;BME280;64294;49.176;16.626;2023-04-15T12:53:26;98341.00;;;8.20;98.22
75681;BME280;64294;49.176;16.626;2023-04-15T12:55:52;98332.56;;;8.75;98.40
75681;BME280;64294;49.176;16.626;2023-04-15T12:58:18;98324.41;;;9.49;92.22
75681;BME280;64294;49.176;16.626;2023-04-15T13:00:43;98327.09;;;10.29;83.26
75681;BME280;64294;49.176;16.626;2023-04-15T13:03:09;98328.00;;;11.15;83.39
75681;BME280;64294;49.176;16.626;2023-04-15T13:05:34;98333.06;;;12.20;77.57
75681;BME280;64294;49.176;16.626;2023-04-15T13:08:01;98339.38;;;12.78;76.23